createdAt,value
2022-11-21T00:01:31.514Z,-0.67
2022-11-21T00:04:33.113Z,-0.61
2022-11-21T00:07:34.753Z,-0.56
2022-11-21T00:10:37.770Z,-0.50
2022-11-21T00:13:40.091Z,-0.50
2022-11-21T00:16:41.709Z,-0.46
2022-11-21T00:19:44.223Z,-0.55
2022-11-21T00:22:46.387Z,-0.48
2022-11-21T00:25:47.935Z,-0.38
2022-11-21T00:28:49.524Z,-0.34
2022-11-21T00:31:51.096Z,-0.24
2022-11-21T00:34:52.706Z,-0.14
2022-11-21T00:37:54.435Z,-0.12
2022-11-21T00:40:56.019Z,-0.04
2022-11-21T00:43:57.702Z,-0.09
2022-11-21T00:46:59.279Z,-0.04
2022-11-21T00:50:00.844Z,-0.01
2022-11-21T00:53:02.484Z,-0.03
2022-11-21T00:56:04.200Z,-0.08
2022-11-21T00:59:05.799Z,-0.03
2022-11-21T01:02:07.576Z,-0.07
2022-11-21T01:05:09.406Z,-0.03
2022-11-21T01:08:11.054Z,-0.01
2022-11-21T01:11:15.802Z,0.00
2022-11-21T01:14:17.864Z,-0.11
2022-11-21T01:17:19.567Z,-0.17
2022-11-21T01:20:21.173Z,-0.16
2022-11-21T01:23:22.833Z,-0.26
2022-11-21T01:26:26.393Z,-0.02
2022-11-21T01:29:28.354Z,-0.08
2022-11-21T01:32:29.996Z,-0.16
2022-11-21T01:35:31.692Z,-0.21
2022-11-21T01:38:34.153Z,-0.12
2022-11-21T01:41:38.961Z,-0.24
2022-11-21T01:44:51.995Z,-0.25
2022-11-21T01:47:53.720Z,-0.31
2022-11-21T01:50:59.426Z,-0.51
2022-11-21T01:54:16.695Z,-0.57
2022-11-21T01:57:33.368Z,-0.62
2022-11-21T02:00:39.803Z,-0.67
2022-11-21T02:03:45.577Z,-0.71
2022-11-21T02:06:47.235Z,-0.68
2022-11-21T02:09:54.625Z,-0.74
2022-11-21T02:12:58.796Z,-0.81
2022-11-21T02:16:00.819Z,-0.89
2022-11-21T02:19:02.516Z,-0.79
2022-11-21T02:22:32.839Z,-0.92
2022-11-21T02:25:36.976Z,-1.02
2022-11-21T02:28:38.598Z,-0.99
2022-11-21T02:31:40.181Z,-1.03
2022-11-21T02:34:41.764Z,-1.00
2022-11-21T02:37:47.122Z,-0.99
2022-11-21T02:41:26.599Z,-1.06
2022-11-21T02:44:44.611Z,-1.24
2022-11-21T02:47:50.478Z,-0.86
2022-11-21T02:50:52.091Z,-1.08
2022-11-21T02:53:53.712Z,-1.20
2022-11-21T02:56:56.526Z,-1.24
2022-11-21T02:59:58.127Z,-1.25
2022-11-21T03:02:59.718Z,-1.27
2022-11-21T03:06:01.308Z,-1.14
2022-11-21T03:09:02.884Z,-1.16
2022-11-21T03:12:08.442Z,-1.28
2022-11-21T03:15:13.612Z,-1.08
2022-11-21T03:18:15.603Z,-1.19
2022-11-21T03:21:17.332Z,-1.08
2022-11-21T03:24:19.026Z,-1.01
2022-11-21T03:27:20.646Z,-1.09
2022-11-21T03:30:24.735Z,-1.06
2022-11-21T03:33:26.347Z,-1.11
2022-11-21T03:36:28.014Z,-1.37
2022-11-21T03:39:30.539Z,-1.47
2022-11-21T03:42:32.276Z,-1.46
2022-11-21T03:45:34.156Z,-1.48
2022-11-21T03:48:35.985Z,-1.72
2022-11-21T03:51:38.582Z,-1.33
2022-11-21T03:54:40.166Z,-1.32
2022-11-21T03:57:41.738Z,-1.33
2022-11-21T04:00:43.325Z,-1.26
2022-11-21T04:03:45.911Z,-1.35
2022-11-21T04:06:48.102Z,-1.47
2022-11-21T04:09:49.695Z,-1.52
2022-11-21T04:12:51.345Z,-1.53
2022-11-21T04:15:53.034Z,-1.57
2022-11-21T04:18:54.642Z,-1.49
2022-11-21T04:21:56.242Z,-1.62
2022-11-21T04:24:57.818Z,-1.69
2022-11-21T04:28:00.933Z,-1.75
2022-11-21T04:31:09.919Z,-1.77
2022-11-21T04:34:12.591Z,-1.80
2022-11-21T04:37:14.255Z,-1.89
2022-11-21T04:40:16.600Z,-1.92
2022-11-21T04:43:18.360Z,-1.89
2022-11-21T04:46:19.957Z,-1.92
2022-11-21T04:49:21.532Z,-2.00
2022-11-21T04:52:23.103Z,-2.05
2022-11-21T04:55:29.392Z,-2.02
2022-11-21T04:58:31.044Z,-1.96
2022-11-21T05:01:32.690Z,-1.82
2022-11-21T05:04:34.361Z,-1.57
2022-11-21T05:07:36.325Z,-1.97
2022-11-21T05:10:57.932Z,-1.81
2022-11-21T05:13:59.612Z,-1.85
2022-11-21T05:17:01.245Z,-1.98
2022-11-21T05:20:03.421Z,-2.18
2022-11-21T05:23:05.168Z,-2.06
2022-11-21T05:26:06.773Z,-2.13
2022-11-21T05:29:08.594Z,-1.86
2022-11-21T05:32:10.252Z,-1.77
2022-11-21T05:35:11.934Z,-1.88
2022-11-21T05:38:13.818Z,-2.12
2022-11-21T05:41:15.735Z,-2.15
2022-11-21T05:44:17.519Z,-2.20
2022-11-21T05:47:19.408Z,-1.93
2022-11-21T05:50:21.167Z,-1.99
2022-11-21T05:53:22.789Z,-2.10
2022-11-21T05:56:24.490Z,-2.14
2022-11-21T05:59:26.173Z,-2.07
2022-11-21T06:02:46.279Z,-2.12
2022-11-21T06:05:48.170Z,-2.16
2022-11-21T06:08:49.799Z,-2.05
2022-11-21T06:11:51.430Z,-1.90
2022-11-21T06:14:53.051Z,-1.78
2022-11-21T06:17:54.737Z,-1.87
2022-11-21T06:21:02.267Z,-1.70
2022-11-21T06:24:04.105Z,-1.60
2022-11-21T06:27:05.724Z,-1.41
2022-11-21T06:30:08.241Z,-1.37
2022-11-21T06:33:09.886Z,-1.28
2022-11-21T06:36:13.985Z,-1.23
2022-11-21T06:39:15.595Z,-1.08
2022-11-21T06:42:17.237Z,-0.95
2022-11-21T06:45:18.875Z,-1.09
2022-11-21T06:48:20.524Z,-0.80
2022-11-21T06:51:24.497Z,-0.60
2022-11-21T06:54:26.112Z,-1.08
2022-11-21T06:57:27.740Z,-0.43
2022-11-21T07:00:29.608Z,-0.59
2022-11-21T07:03:31.473Z,-0.67
2022-11-21T07:06:34.828Z,-0.06
2022-11-21T07:09:36.830Z,-0.04
2022-11-21T07:12:56.839Z,0.14
2022-11-21T07:16:04.217Z,0.12
2022-11-21T07:19:05.880Z,0.35
2022-11-21T07:22:08.636Z,0.52
2022-11-21T07:25:10.279Z,0.56
2022-11-21T07:28:12.231Z,0.77
2022-11-21T07:31:14.563Z,0.86
2022-11-21T07:34:16.295Z,0.90
2022-11-21T07:37:17.974Z,1.58
2022-11-21T07:40:19.720Z,1.56
2022-11-21T07:43:21.410Z,1.90
2022-11-21T07:46:23.080Z,1.94
2022-11-21T07:49:24.765Z,2.22
2022-11-21T07:52:26.714Z,2.46
2022-11-21T07:55:35.170Z,2.54
2022-11-21T07:58:39.430Z,2.53
2022-11-21T08:01:45.289Z,2.44
2022-11-21T08:04:48.274Z,2.81
2022-11-21T08:07:50.028Z,2.97
2022-11-21T08:10:51.616Z,3.21
2022-11-21T08:13:53.210Z,3.18
2022-11-21T08:16:54.851Z,3.42
2022-11-21T08:19:58.247Z,3.65
2022-11-21T08:22:59.792Z,5.84
2022-11-21T08:26:01.438Z,7.89
2022-11-21T08:29:03.024Z,9.04
2022-11-21T08:32:04.772Z,8.77
2022-11-21T08:35:06.976Z,7.63
2022-11-21T08:38:08.959Z,7.34
2022-11-21T08:41:31.087Z,6.90
2022-11-21T08:44:34.044Z,5.95
2022-11-21T08:47:35.606Z,5.55
2022-11-21T08:50:37.818Z,5.78
2022-11-21T08:53:39.406Z,6.24
2022-11-21T08:56:40.979Z,7.76
2022-11-21T08:59:42.572Z,10.30
2022-11-21T09:02:44.852Z,12.30
2022-11-21T09:05:46.420Z,12.67
2022-11-21T09:08:48.072Z,12.88
2022-11-21T09:11:49.639Z,15.02
2022-11-21T09:15:09.808Z,15.60
2022-11-21T09:18:12.002Z,14.24
2022-11-21T09:21:17.542Z,12.06
2022-11-21T09:24:19.864Z,12.45
2022-11-21T09:27:21.460Z,10.82
2022-11-21T09:30:23.057Z,9.94
2022-11-21T09:33:24.660Z,9.37
2022-11-21T09:36:26.432Z,8.27
2022-11-21T09:39:28.122Z,7.05
2022-11-21T09:42:47.589Z,6.55
2022-11-21T09:46:00.738Z,6.13
2022-11-21T09:49:07.111Z,5.97
2022-11-21T09:52:11.997Z,5.86
2022-11-21T09:55:35.713Z,6.13
2022-11-21T09:58:37.320Z,6.34
2022-11-21T10:01:39.003Z,6.70
2022-11-21T10:04:41.336Z,6.70
2022-11-21T10:07:44.691Z,6.56
2022-11-21T10:10:59.352Z,6.37
2022-11-21T10:14:24.186Z,6.56
2022-11-21T10:17:39.728Z,6.98
2022-11-21T10:21:15.357Z,7.03
2022-11-21T10:24:38.427Z,6.64
2022-11-21T10:28:10.792Z,6.59
2022-11-21T10:31:15.032Z,6.68
2022-11-21T10:34:21.086Z,6.88
2022-11-21T10:37:37.608Z,7.43
2022-11-21T10:41:02.192Z,7.90
2022-11-21T10:44:41.266Z,7.79
2022-11-21T10:47:44.297Z,7.29
2022-11-21T10:50:51.746Z,7.53
2022-11-21T10:54:30.112Z,7.32
2022-11-21T10:57:44.534Z,7.02
2022-11-21T11:00:57.752Z,7.00
2022-11-21T11:04:26.621Z,6.96
2022-11-21T11:07:28.697Z,7.04
2022-11-21T11:10:31.366Z,7.00
2022-11-21T11:13:49.972Z,6.94
2022-11-21T11:16:52.403Z,6.81
2022-11-21T11:20:02.962Z,6.77
2022-11-21T11:23:27.601Z,6.49
2022-11-21T11:26:31.434Z,6.42
2022-11-21T11:29:35.351Z,6.18
2022-11-21T11:32:41.065Z,5.88
2022-11-21T11:35:43.788Z,5.63
2022-11-21T11:39:18.809Z,5.65
2022-11-21T11:43:10.238Z,5.43
2022-11-21T11:47:08.107Z,5.38
2022-11-21T11:50:13.766Z,5.16
2022-11-21T11:53:21.317Z,5.21
2022-11-21T11:56:26.173Z,5.43
2022-11-21T11:59:42.379Z,5.44
2022-11-21T12:02:58.694Z,5.30
2022-11-21T12:06:13.865Z,5.35
2022-11-21T12:09:35.945Z,5.45
2022-11-21T14:09:49.579Z,5.39
2022-11-21T14:12:53.286Z,5.39
2022-11-21T14:16:32.532Z,4.99
2022-11-21T14:19:34.808Z,5.10
2022-11-21T14:22:53.048Z,4.93
2022-11-21T14:26:02.481Z,4.90
2022-11-21T14:29:26.640Z,4.83
2022-11-21T14:32:29.787Z,4.84
2022-11-21T14:35:31.457Z,4.79
2022-11-21T14:38:51.043Z,4.60
2022-11-21T14:41:57.663Z,4.60
2022-11-21T14:45:28.532Z,4.38
2022-11-21T14:48:30.852Z,4.39
2022-11-21T14:51:32.460Z,4.32
2022-11-21T14:54:59.889Z,4.31
2022-11-21T14:58:06.085Z,4.02
2022-11-21T15:01:19.554Z,3.92
2022-11-21T15:04:27.839Z,3.89
2022-11-21T15:07:39.414Z,3.67
2022-11-21T15:10:41.079Z,3.79
2022-11-21T15:17:12.193Z,3.74
2022-11-21T15:20:13.662Z,3.78
2022-11-21T15:23:36.630Z,3.66
2022-11-21T15:26:41.122Z,3.60
2022-11-21T15:29:42.697Z,3.40
2022-11-21T15:33:09.184Z,3.51
2022-11-21T15:36:14.115Z,3.45
2022-11-21T15:39:21.671Z,3.42
2022-11-21T15:42:34.849Z,3.43
2022-11-21T15:45:36.458Z,3.47
2022-11-21T15:48:38.024Z,3.44
2022-11-21T15:52:06.026Z,3.36
2022-11-21T15:55:13.740Z,3.42
2022-11-21T15:57:13.406Z,3.79
2022-11-21T15:58:17.522Z,3.40
2022-11-21T16:01:24.653Z,3.49
2022-11-21T16:04:26.562Z,3.64
2022-11-21T16:07:28.194Z,3.52
2022-11-21T16:10:30.119Z,3.55
2022-11-21T16:13:32.237Z,3.48
2022-11-21T16:16:42.911Z,3.45
2022-11-21T16:19:45.670Z,3.42
2022-11-21T16:22:48.093Z,3.37
2022-11-21T16:25:55.885Z,3.45
2022-11-21T16:28:58.059Z,3.64
2022-11-21T16:31:59.663Z,3.60
2022-11-21T16:35:02.302Z,3.61
2022-11-21T16:38:07.976Z,3.50
2022-11-21T16:41:09.605Z,3.55
2022-11-21T16:44:16.500Z,3.53
2022-11-21T16:47:18.111Z,3.51
2022-11-21T16:50:20.048Z,3.57
2022-11-21T16:53:22.820Z,3.72
2022-11-21T16:56:25.063Z,3.70
2022-11-21T16:59:27.766Z,3.75
2022-11-21T17:02:32.974Z,3.70
2022-11-21T17:05:35.005Z,3.82
2022-11-21T17:08:37.819Z,3.58
2022-11-21T17:11:40.432Z,3.67
2022-11-21T17:14:42.270Z,3.70
2022-11-21T17:17:43.910Z,3.70
2022-11-21T17:20:45.528Z,3.66
2022-11-21T17:23:48.158Z,3.57
2022-11-21T17:26:50.215Z,3.60
2022-11-21T17:29:52.317Z,3.64
2022-11-21T17:32:54.130Z,3.62
2022-11-21T17:35:55.972Z,3.65
2022-11-21T17:38:58.282Z,3.58
2022-11-21T17:42:00.439Z,3.58
2022-11-21T17:45:02.526Z,3.51
2022-11-21T17:48:05.610Z,3.49
2022-11-21T17:51:16.999Z,3.46
2022-11-21T17:54:19.211Z,3.43
2022-11-21T17:57:21.779Z,3.25
2022-11-21T18:00:23.603Z,3.26
2022-11-21T18:03:25.907Z,3.25
2022-11-21T18:06:30.330Z,3.17
2022-11-21T18:09:33.492Z,3.06
2022-11-21T18:12:35.406Z,3.02
2022-11-21T18:15:37.609Z,2.83
2022-11-21T18:18:40.785Z,2.73
2022-11-21T18:21:42.748Z,2.65
2022-11-21T18:24:44.963Z,2.65
2022-11-21T18:27:54.104Z,2.65
2022-11-21T18:31:14.450Z,2.62
2022-11-21T18:34:17.276Z,2.38
2022-11-21T18:37:20.108Z,2.37
2022-11-21T18:40:22.395Z,2.46
2022-11-21T18:43:24.492Z,2.45
2022-11-21T18:46:28.471Z,2.09
2022-11-21T18:49:30.676Z,2.22
2022-11-21T18:52:34.906Z,2.14
2022-11-21T18:55:38.910Z,2.10
2022-11-21T18:58:44.057Z,1.89
2022-11-21T19:01:46.276Z,1.83
2022-11-21T19:04:50.928Z,1.75
2022-11-21T19:07:53.249Z,1.77
2022-11-21T19:11:00.602Z,1.76
2022-11-21T19:14:03.527Z,1.69
2022-11-21T19:17:05.554Z,1.79
2022-11-21T19:20:08.047Z,1.85
2022-11-21T19:23:10.218Z,1.96
2022-11-21T19:26:17.695Z,2.09
2022-11-21T19:29:19.761Z,2.14
2022-11-21T19:32:21.724Z,2.14
2022-11-21T19:35:25.044Z,2.10
2022-11-21T19:38:27.143Z,2.32
2022-11-21T19:41:31.148Z,2.47
2022-11-21T19:44:34.475Z,2.46
2022-11-21T19:47:36.635Z,2.40
2022-11-21T19:50:38.279Z,2.39
2022-11-21T19:53:40.655Z,2.59
2022-11-21T19:56:43.332Z,2.91
2022-11-21T19:59:47.031Z,2.76
2022-11-21T20:02:49.205Z,2.65
2022-11-21T20:05:52.103Z,3.03
2022-11-21T20:08:56.944Z,2.89
2022-11-21T20:11:59.432Z,3.01
2022-11-21T20:15:01.084Z,3.15
2022-11-21T20:18:03.529Z,3.17
2022-11-21T20:21:13.967Z,3.23
2022-11-21T20:24:16.725Z,3.12
2022-11-21T20:27:18.812Z,3.12
2022-11-21T20:30:25.283Z,3.26
2022-11-21T20:33:27.285Z,3.41
2022-11-21T20:36:31.531Z,3.39
2022-11-21T20:39:33.606Z,3.41
2022-11-21T20:42:37.781Z,3.30
2022-11-21T20:49:02.708Z,3.06
2022-11-21T20:55:26.863Z,3.22
2022-11-21T20:58:40.492Z,3.51
2022-11-21T21:01:42.386Z,3.12
2022-11-21T21:04:44.260Z,2.99
2022-11-21T21:07:46.269Z,2.95
2022-11-21T21:11:05.105Z,3.12
2022-11-21T21:14:11.076Z,3.15
2022-11-21T21:17:13.095Z,2.99
2022-11-21T21:20:15.981Z,3.27
2022-11-21T21:23:17.534Z,3.03
2022-11-21T21:26:23.962Z,2.95
2022-11-21T21:29:25.924Z,3.06
2022-11-21T21:32:27.492Z,2.97
2022-11-21T21:35:29.098Z,2.94
2022-11-21T21:38:30.811Z,2.69
2022-11-21T21:41:33.067Z,2.37
2022-11-21T21:44:34.948Z,2.32
2022-11-21T21:47:37.542Z,2.10
2022-11-21T21:50:39.236Z,2.01
2022-11-21T21:53:41.691Z,2.09
2022-11-21T21:56:43.745Z,2.09
2022-11-21T21:59:45.461Z,2.03
2022-11-21T22:02:47.194Z,1.93
2022-11-21T22:05:48.823Z,1.79
2022-11-21T22:08:51.260Z,1.86
2022-11-21T22:11:54.214Z,1.62
2022-11-21T22:14:55.849Z,1.46
2022-11-21T22:17:57.445Z,1.39
2022-11-21T22:20:59.161Z,1.46
2022-11-21T22:24:24.317Z,1.20
2022-11-21T22:27:24.466Z,1.09
2022-11-21T22:30:26.054Z,0.76
2022-11-21T22:33:27.630Z,0.67
2022-11-21T22:36:29.269Z,0.86
2022-11-21T22:39:31.047Z,0.86
2022-11-21T22:42:32.631Z,0.76
2022-11-21T22:45:36.771Z,0.81
2022-11-21T22:48:38.858Z,0.71
2022-11-21T22:51:40.502Z,0.74
2022-11-21T22:54:42.056Z,0.88
2022-11-21T22:57:43.610Z,0.91
2022-11-21T23:00:45.164Z,0.93
2022-11-21T23:03:47.475Z,0.77
2022-11-21T23:06:49.034Z,0.84
2022-11-21T23:09:50.581Z,0.71
2022-11-21T23:12:52.126Z,0.80
2022-11-21T23:15:53.702Z,0.70
2022-11-21T23:18:56.785Z,0.66
2022-11-21T23:21:58.410Z,0.61
2022-11-21T23:24:59.969Z,0.69
2022-11-21T23:28:01.531Z,0.60
2022-11-21T23:31:03.078Z,0.52
2022-11-21T23:34:04.829Z,0.39
2022-11-21T23:37:06.359Z,0.46
2022-11-21T23:40:08.613Z,0.40
2022-11-21T23:43:10.224Z,0.17
2022-11-21T23:46:11.881Z,0.16
2022-11-21T23:49:13.433Z,-0.06
2022-11-21T23:52:14.992Z,0.08
2022-11-21T23:55:17.505Z,-0.04
2022-11-21T23:58:19.114Z,-0.11
